sensor_id;sensor_type;location;lat;lon;timestamp;P1;durP1;ratioP1;P2;durP2;ratioP2
34960;SDS011;30789;52.030;7.110;2023-04-06T00:00:21;10.77;;;6.25;;
34960;SDS011;30789;52.030;7.110;2023-04-06T00:02:48;13.23;;;7.32;;
34960;SDS011;30789;52.030;7.110;2023-04-06T00:05:15;12.38;;;7.30;;
34960;SDS011;30789;52.030;7.110;2023-04-06T00:07:42;15.20;;;7.13;;
34960;SDS011;30789;52.030;7.110;2023-04-06T00:10:10;8.93;;;6.53;;
34960;SDS011;30789;52.030;7.110;2023-04-06T00:12:37;9.65;;;6.82;;
34960;SDS011;30789;52.030;7.110;2023-04-06T00:15:04;11.10;;;7.00;;
34960;SDS011;30789;52.030;7.110;2023-04-06T00:17:31;11.45;;;6.70;;
34960;SDS011;30789;52.030;7.110;2023-04-06T00:19:58;9.63;;;6.70;;
34960;SDS011;30789;52.030;7.110;2023-04-06T00:22:25;12.50;;;6.93;;
34960;SDS011;30789;52.030;7.110;2023-04-06T00:24:51;8.90;;;6.43;;
34960;SDS011;30789;52.030;7.110;2023-04-06T00:27:20;10.57;;;7.13;;
34960;SDS011;30789;52.030;7.110;2023-04-06T00:29:47;11.13;;;6.85;;
34960;SDS011;30789;52.030;7.110;2023-04-06T00:32:13;9.02;;;6.75;;
34960;SDS011;30789;52.030;7.110;2023-04-06T00:34:40;11.57;;;7.60;;
34960;SDS011;30789;52.030;7.110;2023-04-06T00:37:07;13.13;;;7.65;;
34960;SDS011;30789;52.030;7.110;2023-04-06T00:39:33;13.60;;;7.68;;
34960;SDS011;30789;52.030;7.110;2023-04-06T00:42:00;13.35;;;8.05;;
34960;SDS011;30789;52.030;7.110;2023-04-06T00:44:38;10.05;;;6.85;;
34960;SDS011;30789;52.030;7.110;2023-04-06T00:47:04;12.13;;;6.97;;
34960;SDS011;30789;52.030;7.110;2023-04-06T00:49:31;11.65;;;6.43;;
34960;SDS011;30789;52.030;7.110;2023-04-06T00:51:58;12.65;;;7.45;;
34960;SDS011;30789;52.030;7.110;2023-04-06T00:54:26;9.70;;;7.35;;
34960;SDS011;30789;52.030;7.110;2023-04-06T00:56:52;14.15;;;7.05;;
34960;SDS011;30789;52.030;7.110;2023-04-06T00:59:20;12.98;;;7.30;;
34960;SDS011;30789;52.030;7.110;2023-04-06T01:01:48;10.85;;;6.70;;
34960;SDS011;30789;52.030;7.110;2023-04-06T01:04:14;9.45;;;6.90;;
34960;SDS011;30789;52.030;7.110;2023-04-06T01:06:41;9.82;;;6.57;;
34960;SDS011;30789;52.030;7.110;2023-04-06T01:09:08;8.75;;;6.30;;
34960;SDS011;30789;52.030;7.110;2023-04-06T01:11:35;10.13;;;6.72;;
34960;SDS011;30789;52.030;7.110;2023-04-06T01:14:02;10.30;;;7.20;;
34960;SDS011;30789;52.030;7.110;2023-04-06T01:16:30;10.05;;;7.50;;
34960;SDS011;30789;52.030;7.110;2023-04-06T01:18:58;12.73;;;7.15;;
34960;SDS011;30789;52.030;7.110;2023-04-06T01:21:24;14.02;;;6.90;;
34960;SDS011;30789;52.030;7.110;2023-04-06T01:23:53;9.45;;;6.78;;
34960;SDS011;30789;52.030;7.110;2023-04-06T01:26:20;11.57;;;7.07;;
34960;SDS011;30789;52.030;7.110;2023-04-06T01:28:46;12.95;;;6.57;;
34960;SDS011;30789;52.030;7.110;2023-04-06T01:31:13;9.65;;;6.90;;
34960;SDS011;30789;52.030;7.110;2023-04-06T01:33:40;10.18;;;7.43;;
34960;SDS011;30789;52.030;7.110;2023-04-06T01:36:07;11.73;;;7.07;;
34960;SDS011;30789;52.030;7.110;2023-04-06T01:38:33;10.27;;;6.85;;
34960;SDS011;30789;52.030;7.110;2023-04-06T01:41:02;11.07;;;7.07;;
34960;SDS011;30789;52.030;7.110;2023-04-06T01:43:29;10.75;;;7.93;;
34960;SDS011;30789;52.030;7.110;2023-04-06T01:45:55;14.20;;;6.97;;
34960;SDS011;30789;52.030;7.110;2023-04-06T01:48:22;10.90;;;6.47;;
34960;SDS011;30789;52.030;7.110;2023-04-06T01:50:49;10.63;;;6.88;;
34960;SDS011;30789;52.030;7.110;2023-04-06T01:53:16;12.90;;;7.85;;
34960;SDS011;30789;52.030;7.110;2023-04-06T01:55:42;10.30;;;6.45;;
34960;SDS011;30789;52.030;7.110;2023-04-06T01:58:11;7.85;;;5.95;;
34960;SDS011;30789;52.030;7.110;2023-04-06T02:00:38;9.95;;;7.63;;
34960;SDS011;30789;52.030;7.110;2023-04-06T02:03:05;12.38;;;7.65;;
34960;SDS011;30789;52.030;7.110;2023-04-06T02:05:32;11.40;;;6.60;;
34960;SDS011;30789;52.030;7.110;2023-04-06T02:08:02;8.67;;;6.27;;
34960;SDS011;30789;52.030;7.110;2023-04-06T02:10:29;14.32;;;7.30;;
34960;SDS011;30789;52.030;7.110;2023-04-06T02:12:56;9.38;;;5.90;;
34960;SDS011;30789;52.030;7.110;2023-04-06T02:15:24;12.75;;;6.90;;
34960;SDS011;30789;52.030;7.110;2023-04-06T02:17:51;9.65;;;7.25;;
34960;SDS011;30789;52.030;7.110;2023-04-06T02:20:18;9.70;;;6.93;;
34960;SDS011;30789;52.030;7.110;2023-04-06T02:22:45;15.45;;;7.30;;
34960;SDS011;30789;52.030;7.110;2023-04-06T02:25:11;9.63;;;7.00;;
34960;SDS011;30789;52.030;7.110;2023-04-06T02:27:38;11.00;;;7.28;;
34960;SDS011;30789;52.030;7.110;2023-04-06T02:30:05;10.18;;;7.05;;
34960;SDS011;30789;52.030;7.110;2023-04-06T02:32:34;11.45;;;6.50;;
34960;SDS011;30789;52.030;7.110;2023-04-06T02:35:00;11.18;;;6.70;;
34960;SDS011;30789;52.030;7.110;2023-04-06T02:37:27;12.32;;;7.57;;
34960;SDS011;30789;52.030;7.110;2023-04-06T02:39:54;11.05;;;7.82;;
34960;SDS011;30789;52.030;7.110;2023-04-06T02:42:20;13.70;;;7.00;;
34960;SDS011;30789;52.030;7.110;2023-04-06T02:44:47;9.80;;;6.97;;
34960;SDS011;30789;52.030;7.110;2023-04-06T02:47:13;9.23;;;6.55;;
34960;SDS011;30789;52.030;7.110;2023-04-06T02:49:42;10.25;;;6.75;;
34960;SDS011;30789;52.030;7.110;2023-04-06T02:52:08;9.27;;;6.68;;
34960;SDS011;30789;52.030;7.110;2023-04-06T02:54:35;12.75;;;7.60;;
34960;SDS011;30789;52.030;7.110;2023-04-06T02:57:02;15.80;;;7.95;;
34960;SDS011;30789;52.030;7.110;2023-04-06T02:59:28;10.13;;;6.93;;
34960;SDS011;30789;52.030;7.110;2023-04-06T03:01:55;11.48;;;7.55;;
34960;SDS011;30789;52.030;7.110;2023-04-06T03:04:21;10.82;;;7.15;;
34960;SDS011;30789;52.030;7.110;2023-04-06T03:06:52;10.30;;;7.68;;
34960;SDS011;30789;52.030;7.110;2023-04-06T03:09:20;9.25;;;6.60;;
34960;SDS011;30789;52.030;7.110;2023-04-06T03:11:47;8.77;;;6.45;;
34960;SDS011;30789;52.030;7.110;2023-04-06T03:14:13;12.77;;;7.55;;
34960;SDS011;30789;52.030;7.110;2023-04-06T03:16:42;11.60;;;6.93;;
34960;SDS011;30789;52.030;7.110;2023-04-06T03:19:09;12.50;;;7.05;;
34960;SDS011;30789;52.030;7.110;2023-04-06T03:21:35;11.98;;;6.85;;
34960;SDS011;30789;52.030;7.110;2023-04-06T03:24:03;8.90;;;6.55;;
34960;SDS011;30789;52.030;7.110;2023-04-06T03:26:30;12.38;;;7.53;;
34960;SDS011;30789;52.030;7.110;2023-04-06T03:28:57;9.75;;;6.85;;
34960;SDS011;30789;52.030;7.110;2023-04-06T03:31:24;10.50;;;7.47;;
34960;SDS011;30789;52.030;7.110;2023-04-06T03:33:51;9.07;;;7.20;;
34960;SDS011;30789;52.030;7.110;2023-04-06T03:36:17;11.63;;;6.80;;
34960;SDS011;30789;52.030;7.110;2023-04-06T03:38:44;11.63;;;7.20;;
34960;SDS011;30789;52.030;7.110;2023-04-06T03:41:12;11.25;;;6.88;;
34960;SDS011;30789;52.030;7.110;2023-04-06T03:43:39;9.07;;;6.43;;
34960;SDS011;30789;52.030;7.110;2023-04-06T03:46:06;12.48;;;7.55;;
34960;SDS011;30789;52.030;7.110;2023-04-06T03:48:33;10.35;;;7.28;;
34960;SDS011;30789;52.030;7.110;2023-04-06T03:50:59;10.07;;;6.68;;
34960;SDS011;30789;52.030;7.110;2023-04-06T03:53:26;9.98;;;6.78;;
34960;SDS011;30789;52.030;7.110;2023-04-06T03:55:53;10.35;;;6.65;;
34960;SDS011;30789;52.030;7.110;2023-04-06T03:58:21;10.35;;;6.63;;
34960;SDS011;30789;52.030;7.110;2023-04-06T04:00:48;8.80;;;6.00;;
34960;SDS011;30789;52.030;7.110;2023-04-06T04:03:15;11.82;;;7.20;;
34960;SDS011;30789;52.030;7.110;2023-04-06T04:05:41;13.30;;;7.13;;
34960;SDS011;30789;52.030;7.110;2023-04-06T04:08:09;14.35;;;7.68;;
34960;SDS011;30789;52.030;7.110;2023-04-06T04:10:36;12.45;;;7.47;;
34960;SDS011;30789;52.030;7.110;2023-04-06T04:13:03;8.70;;;6.25;;
34960;SDS011;30789;52.030;7.110;2023-04-06T04:15:31;10.73;;;7.07;;
34960;SDS011;30789;52.030;7.110;2023-04-06T04:17:57;11.20;;;7.95;;
34960;SDS011;30789;52.030;7.110;2023-04-06T04:20:24;10.85;;;7.40;;
34960;SDS011;30789;52.030;7.110;2023-04-06T04:22:51;11.65;;;7.32;;
34960;SDS011;30789;52.030;7.110;2023-04-06T04:25:17;11.40;;;7.32;;
34960;SDS011;30789;52.030;7.110;2023-04-06T04:27:44;10.48;;;7.40;;
34960;SDS011;30789;52.030;7.110;2023-04-06T04:30:11;8.85;;;7.05;;
34960;SDS011;30789;52.030;7.110;2023-04-06T04:32:39;14.32;;;7.93;;
34960;SDS011;30789;52.030;7.110;2023-04-06T04:35:06;11.43;;;7.50;;
34960;SDS011;30789;52.030;7.110;2023-04-06T04:37:34;15.30;;;8.25;;
34960;SDS011;30789;52.030;7.110;2023-04-06T04:40:01;13.10;;;8.55;;
34960;SDS011;30789;52.030;7.110;2023-04-06T04:42:28;13.40;;;8.93;;
34960;SDS011;30789;52.030;7.110;2023-04-06T04:44:54;17.70;;;8.57;;
34960;SDS011;30789;52.030;7.110;2023-04-06T04:47:21;13.55;;;9.25;;
34960;SDS011;30789;52.030;7.110;2023-04-06T04:49:49;15.48;;;9.23;;
34960;SDS011;30789;52.030;7.110;2023-04-06T04:52:16;17.35;;;9.95;;
34960;SDS011;30789;52.030;7.110;2023-04-06T04:54:43;13.48;;;8.73;;
34960;SDS011;30789;52.030;7.110;2023-04-06T04:57:12;18.15;;;10.05;;
34960;SDS011;30789;52.030;7.110;2023-04-06T04:59:38;19.90;;;11.00;;
34960;SDS011;30789;52.030;7.110;2023-04-06T05:02:05;20.05;;;11.40;;
34960;SDS011;30789;52.030;7.110;2023-04-06T05:04:32;23.90;;;11.60;;
34960;SDS011;30789;52.030;7.110;2023-04-06T05:07:04;18.70;;;10.70;;
34960;SDS011;30789;52.030;7.110;2023-04-06T05:09:31;14.15;;;9.57;;
34960;SDS011;30789;52.030;7.110;2023-04-06T05:11:58;16.15;;;10.35;;
34960;SDS011;30789;52.030;7.110;2023-04-06T05:14:25;19.83;;;10.18;;
34960;SDS011;30789;52.030;7.110;2023-04-06T05:16:52;18.08;;;10.07;;
34960;SDS011;30789;52.030;7.110;2023-04-06T05:19:19;17.33;;;10.63;;
34960;SDS011;30789;52.030;7.110;2023-04-06T05:21:46;18.15;;;9.80;;
34960;SDS011;30789;52.030;7.110;2023-04-06T05:24:14;16.27;;;9.65;;
34960;SDS011;30789;52.030;7.110;2023-04-06T05:26:41;16.60;;;10.45;;
34960;SDS011;30789;52.030;7.110;2023-04-06T05:29:08;15.93;;;10.65;;
34960;SDS011;30789;52.030;7.110;2023-04-06T05:31:35;15.35;;;10.02;;
34960;SDS011;30789;52.030;7.110;2023-04-06T05:34:02;14.75;;;10.23;;
34960;SDS011;30789;52.030;7.110;2023-04-06T05:36:28;15.98;;;9.00;;
34960;SDS011;30789;52.030;7.110;2023-04-06T05:38:55;14.00;;;9.63;;
34960;SDS011;30789;52.030;7.110;2023-04-06T05:41:23;13.05;;;8.35;;
34960;SDS011;30789;52.030;7.110;2023-04-06T05:43:50;12.88;;;9.13;;
34960;SDS011;30789;52.030;7.110;2023-04-06T05:46:17;18.02;;;9.32;;
34960;SDS011;30789;52.030;7.110;2023-04-06T05:48:44;13.90;;;8.55;;
34960;SDS011;30789;52.030;7.110;2023-04-06T05:51:11;13.52;;;8.48;;
34960;SDS011;30789;52.030;7.110;2023-04-06T05:53:38;14.57;;;8.98;;
34960;SDS011;30789;52.030;7.110;2023-04-06T05:56:05;13.55;;;9.20;;
34960;SDS011;30789;52.030;7.110;2023-04-06T05:58:34;18.40;;;8.85;;
34960;SDS011;30789;52.030;7.110;2023-04-06T06:01:00;15.98;;;8.20;;
34960;SDS011;30789;52.030;7.110;2023-04-06T06:03:27;12.48;;;9.43;;
34960;SDS011;30789;52.030;7.110;2023-04-06T06:05:58;15.30;;;9.63;;
34960;SDS011;30789;52.030;7.110;2023-04-06T06:08:25;17.52;;;9.45;;
34960;SDS011;30789;52.030;7.110;2023-04-06T06:10:52;15.85;;;9.82;;
34960;SDS011;30789;52.030;7.110;2023-04-06T06:13:19;16.65;;;9.93;;
34960;SDS011;30789;52.030;7.110;2023-04-06T06:15:47;18.98;;;10.00;;
34960;SDS011;30789;52.030;7.110;2023-04-06T06:18:14;20.08;;;10.32;;
34960;SDS011;30789;52.030;7.110;2023-04-06T06:20:41;15.70;;;10.50;;
34960;SDS011;30789;52.030;7.110;2023-04-06T06:23:07;17.77;;;11.73;;
34960;SDS011;30789;52.030;7.110;2023-04-06T06:25:34;20.58;;;10.55;;
34960;SDS011;30789;52.030;7.110;2023-04-06T06:28:01;15.55;;;9.68;;
34960;SDS011;30789;52.030;7.110;2023-04-06T06:30:28;15.55;;;10.93;;
34960;SDS011;30789;52.030;7.110;2023-04-06T06:32:56;15.85;;;10.27;;
34960;SDS011;30789;52.030;7.110;2023-04-06T06:35:23;15.35;;;9.77;;
34960;SDS011;30789;52.030;7.110;2023-04-06T06:37:49;14.38;;;9.88;;
34960;SDS011;30789;52.030;7.110;2023-04-06T06:40:16;17.40;;;10.73;;
34960;SDS011;30789;52.030;7.110;2023-04-06T06:42:43;22.60;;;12.27;;
34960;SDS011;30789;52.030;7.110;2023-04-06T06:45:10;23.83;;;12.52;;
34960;SDS011;30789;52.030;7.110;2023-04-06T06:47:37;24.75;;;11.95;;
34960;SDS011;30789;52.030;7.110;2023-04-06T06:50:06;19.35;;;11.32;;
34960;SDS011;30789;52.030;7.110;2023-04-06T06:52:33;21.13;;;11.13;;
34960;SDS011;30789;52.030;7.110;2023-04-06T06:55:00;19.70;;;10.25;;
34960;SDS011;30789;52.030;7.110;2023-04-06T06:57:27;23.40;;;10.85;;
34960;SDS011;30789;52.030;7.110;2023-04-06T06:59:54;18.77;;;10.98;;
34960;SDS011;30789;52.030;7.110;2023-04-06T07:02:21;17.20;;;10.68;;
34960;SDS011;30789;52.030;7.110;2023-04-06T07:04:47;20.13;;;11.05;;
34960;SDS011;30789;52.030;7.110;2023-04-06T07:07:16;19.13;;;10.45;;
34960;SDS011;30789;52.030;7.110;2023-04-06T07:09:42;15.73;;;10.65;;
34960;SDS011;30789;52.030;7.110;2023-04-06T07:12:09;21.98;;;10.75;;
34960;SDS011;30789;52.030;7.110;2023-04-06T07:14:36;16.38;;;10.30;;
34960;SDS011;30789;52.030;7.110;2023-04-06T07:17:03;18.13;;;9.77;;
34960;SDS011;30789;52.030;7.110;2023-04-06T07:19:30;16.10;;;10.38;;
34960;SDS011;30789;52.030;7.110;2023-04-06T07:21:57;14.07;;;9.02;;
34960;SDS011;30789;52.030;7.110;2023-04-06T07:24:25;17.25;;;9.80;;
34960;SDS011;30789;52.030;7.110;2023-04-06T07:26:52;12.80;;;9.10;;
34960;SDS011;30789;52.030;7.110;2023-04-06T07:29:19;13.80;;;8.80;;
34960;SDS011;30789;52.030;7.110;2023-04-06T07:31:46;15.63;;;9.43;;
34960;SDS011;30789;52.030;7.110;2023-04-06T07:34:14;15.25;;;11.10;;
34960;SDS011;30789;52.030;7.110;2023-04-06T07:36:40;14.50;;;9.85;;
34960;SDS011;30789;52.030;7.110;2023-04-06T07:39:07;17.27;;;11.10;;
34960;SDS011;30789;52.030;7.110;2023-04-06T07:41:35;15.45;;;10.35;;
34960;SDS011;30789;52.030;7.110;2023-04-06T07:44:03;15.15;;;9.85;;
34960;SDS011;30789;52.030;7.110;2023-04-06T07:46:30;15.52;;;10.27;;
34960;SDS011;30789;52.030;7.110;2023-04-06T07:48:58;18.38;;;10.13;;
34960;SDS011;30789;52.030;7.110;2023-04-06T07:51:26;18.45;;;11.00;;
34960;SDS011;30789;52.030;7.110;2023-04-06T07:53:52;13.40;;;9.23;;
34960;SDS011;30789;52.030;7.110;2023-04-06T07:56:19;15.75;;;9.38;;
34960;SDS011;30789;52.030;7.110;2023-04-06T07:58:48;14.80;;;9.63;;
34960;SDS011;30789;52.030;7.110;2023-04-06T08:01:14;14.35;;;9.80;;
34960;SDS011;30789;52.030;7.110;2023-04-06T08:03:41;18.48;;;10.90;;
34960;SDS011;30789;52.030;7.110;2023-04-06T08:06:08;19.00;;;10.32;;
34960;SDS011;30789;52.030;7.110;2023-04-06T08:08:35;17.65;;;10.80;;
34960;SDS011;30789;52.030;7.110;2023-04-06T08:11:01;16.52;;;11.30;;
34960;SDS011;30789;52.030;7.110;2023-04-06T08:13:28;16.67;;;10.35;;
34960;SDS011;30789;52.030;7.110;2023-04-06T08:15:57;15.65;;;9.32;;
34960;SDS011;30789;52.030;7.110;2023-04-06T08:18:25;13.50;;;9.68;;
34960;SDS011;30789;52.030;7.110;2023-04-06T08:20:52;14.00;;;9.93;;
34960;SDS011;30789;52.030;7.110;2023-04-06T08:23:20;13.60;;;9.65;;
34960;SDS011;30789;52.030;7.110;2023-04-06T08:25:47;18.20;;;10.38;;
34960;SDS011;30789;52.030;7.110;2023-04-06T08:28:14;15.40;;;9.40;;
34960;SDS011;30789;52.030;7.110;2023-04-06T08:30:41;18.55;;;9.25;;
34960;SDS011;30789;52.030;7.110;2023-04-06T08:33:11;18.50;;;9.95;;
34960;SDS011;30789;52.030;7.110;2023-04-06T08:35:38;13.80;;;9.32;;
34960;SDS011;30789;52.030;7.110;2023-04-06T08:38:05;16.10;;;10.52;;
34960;SDS011;30789;52.030;7.110;2023-04-06T08:40:35;20.08;;;10.05;;
34960;SDS011;30789;52.030;7.110;2023-04-06T08:43:03;15.60;;;9.75;;
34960;SDS011;30789;52.030;7.110;2023-04-06T08:45:34;14.77;;;9.65;;
34960;SDS011;30789;52.030;7.110;2023-04-06T08:48:01;15.60;;;10.70;;
34960;SDS011;30789;52.030;7.110;2023-04-06T08:50:33;16.55;;;10.18;;
34960;SDS011;30789;52.030;7.110;2023-04-06T08:53:00;13.77;;;9.05;;
34960;SDS011;30789;52.030;7.110;2023-04-06T08:55:27;16.63;;;10.65;;
34960;SDS011;30789;52.030;7.110;2023-04-06T08:57:54;14.40;;;9.75;;
34960;SDS011;30789;52.030;7.110;2023-04-06T09:00:21;15.45;;;10.02;;
34960;SDS011;30789;52.030;7.110;2023-04-06T09:02:49;18.15;;;10.75;;
34960;SDS011;30789;52.030;7.110;2023-04-06T09:05:20;15.82;;;9.93;;
34960;SDS011;30789;52.030;7.110;2023-04-06T09:07:49;20.08;;;11.80;;
34960;SDS011;30789;52.030;7.110;2023-04-06T09:10:16;15.00;;;9.52;;
34960;SDS011;30789;52.030;7.110;2023-04-06T09:12:43;20.95;;;11.18;;
34960;SDS011;30789;52.030;7.110;2023-04-06T09:15:17;19.70;;;11.30;;
34960;SDS011;30789;52.030;7.110;2023-04-06T09:17:45;20.38;;;11.07;;
34960;SDS011;30789;52.030;7.110;2023-04-06T09:20:11;16.05;;;10.52;;
34960;SDS011;30789;52.030;7.110;2023-04-06T09:22:39;21.55;;;11.15;;
34960;SDS011;30789;52.030;7.110;2023-04-06T09:25:08;20.00;;;10.82;;
34960;SDS011;30789;52.030;7.110;2023-04-06T09:27:37;18.40;;;11.90;;
34960;SDS011;30789;52.030;7.110;2023-04-06T09:30:04;21.23;;;12.38;;
34960;SDS011;30789;52.030;7.110;2023-04-06T09:32:43;17.88;;;11.88;;
34960;SDS011;30789;52.030;7.110;2023-04-06T09:35:11;23.20;;;12.55;;
34960;SDS011;30789;52.030;7.110;2023-04-06T09:37:38;23.45;;;12.80;;
34960;SDS011;30789;52.030;7.110;2023-04-06T09:40:05;18.67;;;12.32;;
34960;SDS011;30789;52.030;7.110;2023-04-06T09:42:35;17.15;;;11.98;;
34960;SDS011;30789;52.030;7.110;2023-04-06T09:45:02;24.05;;;12.52;;
34960;SDS011;30789;52.030;7.110;2023-04-06T09:47:30;22.63;;;12.98;;
34960;SDS011;30789;52.030;7.110;2023-04-06T09:49:58;21.95;;;13.27;;
34960;SDS011;30789;52.030;7.110;2023-04-06T09:52:26;22.05;;;13.45;;
34960;SDS011;30789;52.030;7.110;2023-04-06T09:54:59;18.63;;;12.40;;
34960;SDS011;30789;52.030;7.110;2023-04-06T09:57:31;20.35;;;11.82;;
34960;SDS011;30789;52.030;7.110;2023-04-06T10:00:01;24.73;;;13.00;;
34960;SDS011;30789;52.030;7.110;2023-04-06T10:02:35;17.77;;;12.63;;
34960;SDS011;30789;52.030;7.110;2023-04-06T10:05:12;20.85;;;14.02;;
34960;SDS011;30789;52.030;7.110;2023-04-06T10:07:45;20.60;;;13.80;;
34960;SDS011;30789;52.030;7.110;2023-04-06T10:10:15;23.02;;;13.52;;
34960;SDS011;30789;52.030;7.110;2023-04-06T10:12:44;25.05;;;14.35;;
34960;SDS011;30789;52.030;7.110;2023-04-06T10:15:13;21.67;;;14.33;;
34960;SDS011;30789;52.030;7.110;2023-04-06T10:17:40;18.75;;;13.40;;
34960;SDS011;30789;52.030;7.110;2023-04-06T10:20:09;19.83;;;12.65;;
34960;SDS011;30789;52.030;7.110;2023-04-06T10:22:41;21.00;;;13.80;;
34960;SDS011;30789;52.030;7.110;2023-04-06T10:25:25;23.42;;;13.15;;
34960;SDS011;30789;52.030;7.110;2023-04-06T10:28:00;20.35;;;13.43;;
34960;SDS011;30789;52.030;7.110;2023-04-06T10:30:27;22.60;;;13.32;;
34960;SDS011;30789;52.030;7.110;2023-04-06T10:32:54;18.95;;;13.27;;
34960;SDS011;30789;52.030;7.110;2023-04-06T10:35:21;19.60;;;12.80;;
34960;SDS011;30789;52.030;7.110;2023-04-06T10:37:50;18.73;;;12.52;;
34960;SDS011;30789;52.030;7.110;2023-04-06T10:40:18;19.17;;;12.93;;
34960;SDS011;30789;52.030;7.110;2023-04-06T10:42:46;22.30;;;13.15;;
34960;SDS011;30789;52.030;7.110;2023-04-06T10:45:21;18.10;;;13.00;;
34960;SDS011;30789;52.030;7.110;2023-04-06T10:47:49;21.90;;;13.05;;
34960;SDS011;30789;52.030;7.110;2023-04-06T10:50:18;23.08;;;13.15;;
34960;SDS011;30789;52.030;7.110;2023-04-06T10:52:45;17.67;;;11.73;;
34960;SDS011;30789;52.030;7.110;2023-04-06T10:55:12;18.33;;;12.05;;
34960;SDS011;30789;52.030;7.110;2023-04-06T10:57:40;19.55;;;12.82;;
34960;SDS011;30789;52.030;7.110;2023-04-06T11:00:07;19.73;;;12.65;;
34960;SDS011;30789;52.030;7.110;2023-04-06T11:02:37;17.10;;;11.98;;
34960;SDS011;30789;52.030;7.110;2023-04-06T11:05:04;21.80;;;12.93;;
34960;SDS011;30789;52.030;7.110;2023-04-06T11:07:31;18.92;;;12.57;;
34960;SDS011;30789;52.030;7.110;2023-04-06T11:09:58;18.25;;;11.82;;
34960;SDS011;30789;52.030;7.110;2023-04-06T11:12:25;20.52;;;13.30;;
34960;SDS011;30789;52.030;7.110;2023-04-06T11:14:54;21.15;;;13.27;;
34960;SDS011;30789;52.030;7.110;2023-04-06T11:17:27;21.63;;;13.77;;
34960;SDS011;30789;52.030;7.110;2023-04-06T11:19:55;18.52;;;13.10;;
34960;SDS011;30789;52.030;7.110;2023-04-06T11:22:23;23.23;;;13.13;;
34960;SDS011;30789;52.030;7.110;2023-04-06T11:24:50;23.58;;;13.73;;
34960;SDS011;30789;52.030;7.110;2023-04-06T11:27:17;22.05;;;13.35;;
34960;SDS011;30789;52.030;7.110;2023-04-06T11:29:44;20.88;;;13.27;;
34960;SDS011;30789;52.030;7.110;2023-04-06T11:32:19;20.70;;;12.70;;
34960;SDS011;30789;52.030;7.110;2023-04-06T11:34:46;19.35;;;12.02;;
34960;SDS011;30789;52.030;7.110;2023-04-06T11:37:15;21.55;;;11.95;;
34960;SDS011;30789;52.030;7.110;2023-04-06T11:39:43;19.20;;;12.07;;
34960;SDS011;30789;52.030;7.110;2023-04-06T11:42:20;17.95;;;11.40;;
34960;SDS011;30789;52.030;7.110;2023-04-06T11:44:53;21.30;;;12.10;;
34960;SDS011;30789;52.030;7.110;2023-04-06T11:49:55;17.95;;;11.40;;
34960;SDS011;30789;52.030;7.110;2023-04-06T11:52:32;16.67;;;11.00;;
34960;SDS011;30789;52.030;7.110;2023-04-06T11:55:09;17.83;;;10.98;;
34960;SDS011;30789;52.030;7.110;2023-04-06T11:57:37;19.88;;;11.68;;
34960;SDS011;30789;52.030;7.110;2023-04-06T12:00:05;18.80;;;11.20;;
34960;SDS011;30789;52.030;7.110;2023-04-06T12:02:33;22.90;;;14.63;;
34960;SDS011;30789;52.030;7.110;2023-04-06T12:04:59;22.08;;;14.48;;
34960;SDS011;30789;52.030;7.110;2023-04-06T12:07:26;20.58;;;14.57;;
34960;SDS011;30789;52.030;7.110;2023-04-06T12:09:56;21.05;;;14.05;;
34960;SDS011;30789;52.030;7.110;2023-04-06T12:12:22;20.50;;;13.60;;
34960;SDS011;30789;52.030;7.110;2023-04-06T12:14:49;18.60;;;13.20;;
34960;SDS011;30789;52.030;7.110;2023-04-06T12:17:16;20.05;;;13.55;;
34960;SDS011;30789;52.030;7.110;2023-04-06T12:19:43;20.00;;;13.90;;
34960;SDS011;30789;52.030;7.110;2023-04-06T12:22:09;20.95;;;13.25;;
34960;SDS011;30789;52.030;7.110;2023-04-06T12:24:36;18.83;;;13.52;;
34960;SDS011;30789;52.030;7.110;2023-04-06T12:27:04;21.50;;;12.98;;
34960;SDS011;30789;52.030;7.110;2023-04-06T12:29:31;21.10;;;13.23;;
34960;SDS011;30789;52.030;7.110;2023-04-06T12:31:57;20.35;;;13.23;;
34960;SDS011;30789;52.030;7.110;2023-04-06T12:34:24;21.52;;;13.55;;
34960;SDS011;30789;52.030;7.110;2023-04-06T12:36:51;21.83;;;13.68;;
34960;SDS011;30789;52.030;7.110;2023-04-06T12:39:18;22.83;;;12.85;;
34960;SDS011;30789;52.030;7.110;2023-04-06T12:41:45;20.42;;;13.20;;
34960;SDS011;30789;52.030;7.110;2023-04-06T12:44:13;24.10;;;13.85;;
34960;SDS011;30789;52.030;7.110;2023-04-06T12:46:40;23.60;;;13.32;;
34960;SDS011;30789;52.030;7.110;2023-04-06T12:49:08;21.73;;;13.35;;
34960;SDS011;30789;52.030;7.110;2023-04-06T12:51:34;22.23;;;13.20;;
34960;SDS011;30789;52.030;7.110;2023-04-06T12:54:01;19.73;;;13.63;;
34960;SDS011;30789;52.030;7.110;2023-04-06T12:56:28;25.40;;;13.93;;
34960;SDS011;30789;52.030;7.110;2023-04-06T12:58:56;20.17;;;12.50;;
34960;SDS011;30789;52.030;7.110;2023-04-06T13:01:24;25.10;;;13.73;;
34960;SDS011;30789;52.030;7.110;2023-04-06T13:03:52;23.42;;;13.50;;
34960;SDS011;30789;52.030;7.110;2023-04-06T13:06:19;28.38;;;13.70;;
34960;SDS011;30789;52.030;7.110;2023-04-06T13:08:46;25.05;;;13.52;;
34960;SDS011;30789;52.030;7.110;2023-04-06T13:11:15;20.40;;;11.65;;
34960;SDS011;30789;52.030;7.110;2023-04-06T13:13:42;19.77;;;11.77;;
34960;SDS011;30789;52.030;7.110;2023-04-06T13:16:08;19.08;;;10.90;;
34960;SDS011;30789;52.030;7.110;2023-04-06T13:18:37;22.02;;;11.57;;
34960;SDS011;30789;52.030;7.110;2023-04-06T13:21:04;21.02;;;12.38;;
34960;SDS011;30789;52.030;7.110;2023-04-06T13:23:31;23.95;;;12.38;;
34960;SDS011;30789;52.030;7.110;2023-04-06T13:25:58;20.85;;;12.40;;
34960;SDS011;30789;52.030;7.110;2023-04-06T13:28:26;22.42;;;12.20;;
34960;SDS011;30789;52.030;7.110;2023-04-06T13:30:54;18.48;;;10.88;;
34960;SDS011;30789;52.030;7.110;2023-04-06T13:33:21;22.00;;;12.88;;
34960;SDS011;30789;52.030;7.110;2023-04-06T13:35:49;21.73;;;12.98;;
34960;SDS011;30789;52.030;7.110;2023-04-06T13:38:16;21.95;;;12.48;;
34960;SDS011;30789;52.030;7.110;2023-04-06T13:40:42;22.50;;;13.60;;
34960;SDS011;30789;52.030;7.110;2023-04-06T13:43:09;30.73;;;16.80;;
34960;SDS011;30789;52.030;7.110;2023-04-06T13:45:36;23.45;;;14.10;;
34960;SDS011;30789;52.030;7.110;2023-04-06T13:48:04;21.08;;;11.57;;
34960;SDS011;30789;52.030;7.110;2023-04-06T13:50:30;18.58;;;11.60;;
34960;SDS011;30789;52.030;7.110;2023-04-06T13:52:59;24.45;;;11.73;;
34960;SDS011;30789;52.030;7.110;2023-04-06T13:55:26;22.35;;;12.73;;
34960;SDS011;30789;52.030;7.110;2023-04-06T13:57:52;21.92;;;12.25;;
34960;SDS011;30789;52.030;7.110;2023-04-06T14:00:20;20.75;;;11.55;;
34960;SDS011;30789;52.030;7.110;2023-04-06T14:02:47;19.27;;;11.93;;
34960;SDS011;30789;52.030;7.110;2023-04-06T14:05:13;20.85;;;12.45;;
34960;SDS011;30789;52.030;7.110;2023-04-06T14:07:40;23.17;;;11.40;;
34960;SDS011;30789;52.030;7.110;2023-04-06T14:10:09;15.77;;;9.48;;
34960;SDS011;30789;52.030;7.110;2023-04-06T14:15:06;17.90;;;10.32;;
34960;SDS011;30789;52.030;7.110;2023-04-06T14:17:34;16.10;;;10.48;;
34960;SDS011;30789;52.030;7.110;2023-04-06T14:20:00;18.77;;;10.38;;
34960;SDS011;30789;52.030;7.110;2023-04-06T14:22:27;18.67;;;10.10;;
34960;SDS011;30789;52.030;7.110;2023-04-06T14:24:54;16.45;;;10.13;;
34960;SDS011;30789;52.030;7.110;2023-04-06T14:27:23;19.15;;;11.40;;
34960;SDS011;30789;52.030;7.110;2023-04-06T14:29:50;20.30;;;11.60;;
34960;SDS011;30789;52.030;7.110;2023-04-06T14:32:17;17.70;;;10.35;;
34960;SDS011;30789;52.030;7.110;2023-04-06T14:34:45;18.80;;;10.68;;